sensor_id;sensor_type;location;lat;lon;timestamp;P1;durP1;ratioP1;P2;durP2;ratioP2
37855;SDS011;23694;43.274;26.924;2023-04-23T00:01:26;18.50;;;9.53;;
37855;SDS011;23694;43.274;26.924;2023-04-23T00:03:56;18.50;;;9.47;;
37855;SDS011;23694;43.274;26.924;2023-04-23T00:06:22;15.03;;;8.70;;
37855;SDS011;23694;43.274;26.924;2023-04-23T00:08:52;17.00;;;9.40;;
37855;SDS011;23694;43.274;26.924;2023-04-23T00:11:19;19.10;;;8.33;;
37855;SDS011;23694;43.274;26.924;2023-04-23T00:13:46;17.93;;;8.87;;
37855;SDS011;23694;43.274;26.924;2023-04-23T00:16:14;16.40;;;8.53;;
37855;SDS011;23694;43.274;26.924;2023-04-23T00:18:40;13.10;;;7.30;;
37855;SDS011;23694;43.274;26.924;2023-04-23T00:21:06;14.57;;;6.70;;
37855;SDS011;23694;43.274;26.924;2023-04-23T00:23:33;15.73;;;6.80;;
37855;SDS011;23694;43.274;26.924;2023-04-23T00:25:59;11.20;;;6.83;;
37855;SDS011;23694;43.274;26.924;2023-04-23T00:28:26;16.13;;;6.80;;
37855;SDS011;23694;43.274;26.924;2023-04-23T00:30:52;15.27;;;7.30;;
37855;SDS011;23694;43.274;26.924;2023-04-23T00:33:18;16.87;;;6.43;;
37855;SDS011;23694;43.274;26.924;2023-04-23T00:35:44;12.17;;;6.37;;
37855;SDS011;23694;43.274;26.924;2023-04-23T00:38:10;12.10;;;6.00;;
37855;SDS011;23694;43.274;26.924;2023-04-23T00:40:36;7.50;;;5.77;;
37855;SDS011;23694;43.274;26.924;2023-04-23T00:43:03;9.13;;;5.60;;
37855;SDS011;23694;43.274;26.924;2023-04-23T00:45:29;15.73;;;6.00;;
37855;SDS011;23694;43.274;26.924;2023-04-23T00:47:55;10.43;;;5.40;;
37855;SDS011;23694;43.274;26.924;2023-04-23T00:50:22;9.50;;;5.30;;
37855;SDS011;23694;43.274;26.924;2023-04-23T00:52:49;9.53;;;4.70;;
37855;SDS011;23694;43.274;26.924;2023-04-23T00:55:16;12.13;;;5.30;;
37855;SDS011;23694;43.274;26.924;2023-04-23T00:57:45;11.03;;;4.90;;
37855;SDS011;23694;43.274;26.924;2023-04-23T01:00:12;10.90;;;5.10;;
37855;SDS011;23694;43.274;26.924;2023-04-23T01:02:39;12.90;;;5.20;;
37855;SDS011;23694;43.274;26.924;2023-04-23T01:05:10;11.43;;;5.10;;
37855;SDS011;23694;43.274;26.924;2023-04-23T01:07:38;10.63;;;4.90;;
37855;SDS011;23694;43.274;26.924;2023-04-23T01:10:06;12.77;;;5.50;;
37855;SDS011;23694;43.274;26.924;2023-04-23T01:12:33;8.43;;;5.13;;
37855;SDS011;23694;43.274;26.924;2023-04-23T01:15:01;11.03;;;4.67;;
37855;SDS011;23694;43.274;26.924;2023-04-23T01:17:28;9.50;;;4.83;;
37855;SDS011;23694;43.274;26.924;2023-04-23T01:19:58;10.83;;;4.60;;
37855;SDS011;23694;43.274;26.924;2023-04-23T01:28:58;10.57;;;5.50;;
37855;SDS011;23694;43.274;26.924;2023-04-23T01:31:24;13.33;;;5.33;;
37855;SDS011;23694;43.274;26.924;2023-04-23T01:33:57;7.70;;;4.80;;
37855;SDS011;23694;43.274;26.924;2023-04-23T01:36:27;15.60;;;5.40;;
37855;SDS011;23694;43.274;26.924;2023-04-23T01:38:57;9.43;;;4.93;;
37855;SDS011;23694;43.274;26.924;2023-04-23T01:47:57;8.10;;;5.77;;
37855;SDS011;23694;43.274;26.924;2023-04-23T01:50:27;9.77;;;5.20;;
37855;SDS011;23694;43.274;26.924;2023-04-23T01:52:54;12.30;;;5.40;;
37855;SDS011;23694;43.274;26.924;2023-04-23T01:55:20;11.30;;;5.20;;
37855;SDS011;23694;43.274;26.924;2023-04-23T01:57:49;11.83;;;5.30;;
37855;SDS011;23694;43.274;26.924;2023-04-23T02:00:15;11.53;;;5.60;;
37855;SDS011;23694;43.274;26.924;2023-04-23T02:02:42;9.07;;;5.37;;
37855;SDS011;23694;43.274;26.924;2023-04-23T02:05:10;8.63;;;5.47;;
37855;SDS011;23694;43.274;26.924;2023-04-23T02:07:41;9.65;;;5.20;;
37855;SDS011;23694;43.274;26.924;2023-04-23T02:10:08;8.23;;;5.23;;
37855;SDS011;23694;43.274;26.924;2023-04-23T02:12:35;13.53;;;5.70;;
37855;SDS011;23694;43.274;26.924;2023-04-23T02:15:06;10.67;;;5.37;;
37855;SDS011;23694;43.274;26.924;2023-04-23T02:17:35;12.30;;;5.50;;
37855;SDS011;23694;43.274;26.924;2023-04-23T02:20:02;13.63;;;5.93;;
37855;SDS011;23694;43.274;26.924;2023-04-23T02:22:28;14.60;;;5.40;;
37855;SDS011;23694;43.274;26.924;2023-04-23T02:24:54;11.23;;;5.47;;
37855;SDS011;23694;43.274;26.924;2023-04-23T02:27:20;13.17;;;5.33;;
37855;SDS011;23694;43.274;26.924;2023-04-23T02:29:47;14.90;;;5.43;;
37855;SDS011;23694;43.274;26.924;2023-04-23T02:32:14;13.53;;;5.53;;
37855;SDS011;23694;43.274;26.924;2023-04-23T02:34:40;11.93;;;5.63;;
37855;SDS011;23694;43.274;26.924;2023-04-23T02:37:09;10.87;;;5.80;;
37855;SDS011;23694;43.274;26.924;2023-04-23T02:39:35;11.73;;;5.57;;
37855;SDS011;23694;43.274;26.924;2023-04-23T02:42:03;12.03;;;5.40;;
37855;SDS011;23694;43.274;26.924;2023-04-23T02:44:29;12.23;;;5.03;;
37855;SDS011;23694;43.274;26.924;2023-04-23T02:46:58;16.67;;;5.57;;
37855;SDS011;23694;43.274;26.924;2023-04-23T02:49:24;11.17;;;5.80;;
37855;SDS011;23694;43.274;26.924;2023-04-23T02:51:51;12.50;;;5.73;;
37855;SDS011;23694;43.274;26.924;2023-04-23T02:54:17;9.67;;;6.03;;
37855;SDS011;23694;43.274;26.924;2023-04-23T02:56:43;14.67;;;6.50;;
37855;SDS011;23694;43.274;26.924;2023-04-23T02:59:09;12.77;;;7.20;;
37855;SDS011;23694;43.274;26.924;2023-04-23T03:01:44;20.93;;;10.90;;
37855;SDS011;23694;43.274;26.924;2023-04-23T03:04:13;22.03;;;11.47;;
37855;SDS011;23694;43.274;26.924;2023-04-23T03:06:39;27.17;;;14.57;;
37855;SDS011;23694;43.274;26.924;2023-04-23T03:09:05;34.07;;;16.83;;
37855;SDS011;23694;43.274;26.924;2023-04-23T03:11:31;28.70;;;16.87;;
37855;SDS011;23694;43.274;26.924;2023-04-23T03:13:57;29.93;;;17.30;;
37855;SDS011;23694;43.274;26.924;2023-04-23T03:16:23;30.63;;;18.27;;
37855;SDS011;23694;43.274;26.924;2023-04-23T03:18:49;29.47;;;18.27;;
37855;SDS011;23694;43.274;26.924;2023-04-23T03:21:20;26.70;;;16.20;;
37855;SDS011;23694;43.274;26.924;2023-04-23T03:23:47;22.13;;;12.63;;
37855;SDS011;23694;43.274;26.924;2023-04-23T03:26:21;17.57;;;10.80;;
37855;SDS011;23694;43.274;26.924;2023-04-23T03:28:47;15.33;;;10.13;;
37855;SDS011;23694;43.274;26.924;2023-04-23T03:31:16;16.33;;;10.67;;
37855;SDS011;23694;43.274;26.924;2023-04-23T03:33:42;15.80;;;10.90;;
37855;SDS011;23694;43.274;26.924;2023-04-23T03:36:08;15.60;;;8.87;;
37855;SDS011;23694;43.274;26.924;2023-04-23T03:38:34;12.13;;;7.60;;
37855;SDS011;23694;43.274;26.924;2023-04-23T03:41:00;13.57;;;7.20;;
37855;SDS011;23694;43.274;26.924;2023-04-23T03:43:26;14.43;;;6.93;;
37855;SDS011;23694;43.274;26.924;2023-04-23T03:45:55;11.60;;;6.70;;
37855;SDS011;23694;43.274;26.924;2023-04-23T03:48:21;12.27;;;6.27;;
37855;SDS011;23694;43.274;26.924;2023-04-23T03:50:49;22.43;;;6.60;;
37855;SDS011;23694;43.274;26.924;2023-04-23T03:53:15;9.43;;;6.13;;
37855;SDS011;23694;43.274;26.924;2023-04-23T03:55:42;8.50;;;4.70;;
37855;SDS011;23694;43.274;26.924;2023-04-23T03:58:08;10.87;;;5.47;;
37855;SDS011;23694;43.274;26.924;2023-04-23T04:00:35;13.77;;;4.90;;
37855;SDS011;23694;43.274;26.924;2023-04-23T04:03:01;28.70;;;16.47;;
37855;SDS011;23694;43.274;26.924;2023-04-23T04:05:27;8.13;;;4.97;;
37855;SDS011;23694;43.274;26.924;2023-04-23T04:07:56;10.37;;;5.50;;
37855;SDS011;23694;43.274;26.924;2023-04-23T04:10:24;12.73;;;4.90;;
37855;SDS011;23694;43.274;26.924;2023-04-23T04:12:51;10.67;;;5.13;;
37855;SDS011;23694;43.274;26.924;2023-04-23T04:15:17;10.97;;;4.70;;
37855;SDS011;23694;43.274;26.924;2023-04-23T04:17:45;11.33;;;5.27;;
37855;SDS011;23694;43.274;26.924;2023-04-23T04:20:11;13.27;;;4.83;;
37855;SDS011;23694;43.274;26.924;2023-04-23T04:22:38;18.87;;;10.63;;
37855;SDS011;23694;43.274;26.924;2023-04-23T04:25:04;14.50;;;5.50;;
37855;SDS011;23694;43.274;26.924;2023-04-23T04:27:31;10.90;;;4.87;;
37855;SDS011;23694;43.274;26.924;2023-04-23T04:30:00;10.17;;;6.40;;
37855;SDS011;23694;43.274;26.924;2023-04-23T04:32:26;26.80;;;16.87;;
37855;SDS011;23694;43.274;26.924;2023-04-23T04:34:53;13.87;;;5.77;;
37855;SDS011;23694;43.274;26.924;2023-04-23T04:37:19;12.50;;;5.47;;
37855;SDS011;23694;43.274;26.924;2023-04-23T04:39:48;15.00;;;6.13;;
37855;SDS011;23694;43.274;26.924;2023-04-23T04:42:14;15.10;;;6.90;;
37855;SDS011;23694;43.274;26.924;2023-04-23T04:44:40;11.40;;;6.67;;
37855;SDS011;23694;43.274;26.924;2023-04-23T04:47:08;13.80;;;7.93;;
37855;SDS011;23694;43.274;26.924;2023-04-23T04:49:34;14.20;;;7.60;;
37855;SDS011;23694;43.274;26.924;2023-04-23T04:52:00;20.27;;;9.00;;
37855;SDS011;23694;43.274;26.924;2023-04-23T04:54:26;21.83;;;8.33;;
37855;SDS011;23694;43.274;26.924;2023-04-23T04:56:52;17.47;;;10.27;;
37855;SDS011;23694;43.274;26.924;2023-04-23T04:59:18;22.60;;;10.60;;
37855;SDS011;23694;43.274;26.924;2023-04-23T05:01:46;23.60;;;10.00;;
37855;SDS011;23694;43.274;26.924;2023-04-23T05:04:12;21.87;;;10.53;;
37855;SDS011;23694;43.274;26.924;2023-04-23T05:06:38;22.67;;;11.83;;
37855;SDS011;23694;43.274;26.924;2023-04-23T05:09:05;21.97;;;11.87;;
37855;SDS011;23694;43.274;26.924;2023-04-23T05:11:32;23.33;;;10.57;;
37855;SDS011;23694;43.274;26.924;2023-04-23T05:14:00;17.20;;;11.33;;
37855;SDS011;23694;43.274;26.924;2023-04-23T05:16:26;23.83;;;11.87;;
37855;SDS011;23694;43.274;26.924;2023-04-23T05:18:52;18.63;;;11.30;;
37855;SDS011;23694;43.274;26.924;2023-04-23T05:21:18;25.87;;;11.33;;
37855;SDS011;23694;43.274;26.924;2023-04-23T05:23:44;20.70;;;9.77;;
37855;SDS011;23694;43.274;26.924;2023-04-23T05:26:10;24.07;;;11.43;;
37855;SDS011;23694;43.274;26.924;2023-04-23T05:28:36;25.67;;;12.93;;
37855;SDS011;23694;43.274;26.924;2023-04-23T05:31:02;25.30;;;12.43;;
37855;SDS011;23694;43.274;26.924;2023-04-23T05:33:28;23.57;;;11.63;;
37855;SDS011;23694;43.274;26.924;2023-04-23T05:35:56;20.07;;;11.40;;
37855;SDS011;23694;43.274;26.924;2023-04-23T05:38:22;21.77;;;11.30;;
37855;SDS011;23694;43.274;26.924;2023-04-23T05:40:48;22.27;;;10.70;;
37855;SDS011;23694;43.274;26.924;2023-04-23T05:43:14;18.27;;;10.37;;
37855;SDS011;23694;43.274;26.924;2023-04-23T05:45:40;16.97;;;9.90;;
37855;SDS011;23694;43.274;26.924;2023-04-23T05:48:07;19.40;;;9.60;;
37855;SDS011;23694;43.274;26.924;2023-04-23T05:50:33;16.83;;;9.27;;
37855;SDS011;23694;43.274;26.924;2023-04-23T05:52:59;19.13;;;10.00;;
37855;SDS011;23694;43.274;26.924;2023-04-23T05:55:25;19.97;;;10.10;;
37855;SDS011;23694;43.274;26.924;2023-04-23T05:57:51;19.63;;;10.37;;
37855;SDS011;23694;43.274;26.924;2023-04-23T06:00:17;16.87;;;9.53;;
37855;SDS011;23694;43.274;26.924;2023-04-23T06:02:43;21.50;;;10.80;;
37855;SDS011;23694;43.274;26.924;2023-04-23T06:05:09;18.00;;;9.00;;
37855;SDS011;23694;43.274;26.924;2023-04-23T06:07:35;14.77;;;8.13;;
37855;SDS011;23694;43.274;26.924;2023-04-23T06:10:05;13.30;;;7.37;;
37855;SDS011;23694;43.274;26.924;2023-04-23T06:12:33;15.53;;;7.80;;
37855;SDS011;23694;43.274;26.924;2023-04-23T06:15:05;14.83;;;7.63;;
37855;SDS011;23694;43.274;26.924;2023-04-23T06:17:31;25.20;;;9.87;;
37855;SDS011;23694;43.274;26.924;2023-04-23T06:19:57;13.27;;;8.27;;
37855;SDS011;23694;43.274;26.924;2023-04-23T06:22:24;13.93;;;8.37;;
37855;SDS011;23694;43.274;26.924;2023-04-23T06:24:50;18.57;;;8.43;;
37855;SDS011;23694;43.274;26.924;2023-04-23T06:27:16;19.27;;;10.33;;
37855;SDS011;23694;43.274;26.924;2023-04-23T06:29:43;10.33;;;7.03;;
37855;SDS011;23694;43.274;26.924;2023-04-23T06:32:09;14.47;;;7.83;;
37855;SDS011;23694;43.274;26.924;2023-04-23T06:34:35;15.37;;;7.53;;
37855;SDS011;23694;43.274;26.924;2023-04-23T06:37:01;17.57;;;9.47;;
37855;SDS011;23694;43.274;26.924;2023-04-23T06:39:27;9.93;;;6.43;;
37855;SDS011;23694;43.274;26.924;2023-04-23T06:41:53;11.13;;;6.40;;
37855;SDS011;23694;43.274;26.924;2023-04-23T06:44:19;15.07;;;6.50;;
37855;SDS011;23694;43.274;26.924;2023-04-23T06:46:45;13.77;;;7.13;;
37855;SDS011;23694;43.274;26.924;2023-04-23T06:49:11;15.27;;;6.47;;
37855;SDS011;23694;43.274;26.924;2023-04-23T06:51:37;12.87;;;6.73;;
37855;SDS011;23694;43.274;26.924;2023-04-23T06:54:03;12.00;;;6.83;;
37855;SDS011;23694;43.274;26.924;2023-04-23T06:56:29;12.80;;;6.10;;
37855;SDS011;23694;43.274;26.924;2023-04-23T06:58:55;11.70;;;6.30;;
37855;SDS011;23694;43.274;26.924;2023-04-23T07:01:21;12.50;;;6.20;;
37855;SDS011;23694;43.274;26.924;2023-04-23T07:03:47;12.80;;;6.17;;
37855;SDS011;23694;43.274;26.924;2023-04-23T07:06:15;11.27;;;5.40;;
37855;SDS011;23694;43.274;26.924;2023-04-23T07:08:42;11.17;;;5.17;;
